createdAt,value
2022-11-10T00:01:21.232Z,-7.61
2022-11-10T00:03:52.054Z,-7.73
2022-11-10T00:06:21.482Z,-7.88
2022-11-10T00:08:50.843Z,-7.95
2022-11-10T00:11:20.174Z,-8.03
2022-11-10T00:14:09.140Z,-8.10
2022-11-10T00:16:57.350Z,-8.15
2022-11-10T00:19:26.680Z,-8.24
2022-11-10T00:21:56.174Z,-8.28
2022-11-10T00:24:26.705Z,-8.30
2022-11-10T00:26:57.213Z,-8.25
2022-11-10T00:29:26.586Z,-8.28
2022-11-10T00:31:56.074Z,-8.29
2022-11-10T00:34:26.571Z,-8.23
2022-11-10T00:36:56.179Z,-8.23
2022-11-10T00:39:26.053Z,-8.22
2022-11-10T00:41:56.049Z,-8.37
2022-11-10T00:44:25.388Z,-8.44
2022-11-10T00:46:54.884Z,-8.53
2022-11-10T00:49:24.428Z,-8.81
2022-11-10T00:51:54.066Z,-8.95
2022-11-10T00:54:23.422Z,-9.05
2022-11-10T00:56:52.797Z,-9.10
2022-11-10T00:59:22.697Z,-9.19
2022-11-10T01:01:52.193Z,-9.33
2022-11-10T01:04:21.423Z,-9.61
2022-11-10T01:06:50.815Z,-9.79
2022-11-10T01:09:21.030Z,-9.91
2022-11-10T01:11:50.655Z,-10.03
2022-11-10T01:14:20.124Z,-10.15
2022-11-10T01:16:49.435Z,-10.26
2022-11-10T01:19:18.618Z,-10.39
2022-11-10T01:21:49.123Z,-10.34
2022-11-10T01:24:23.029Z,-10.28
2022-11-10T01:26:52.235Z,-10.20
2022-11-10T01:29:21.893Z,-10.26
2022-11-10T01:31:51.435Z,-10.36
2022-11-10T01:34:21.052Z,-10.35
2022-11-10T01:36:50.370Z,-10.32
2022-11-10T01:39:20.206Z,-10.26
2022-11-10T01:41:50.521Z,-10.28
2022-11-10T01:44:26.670Z,-10.20
2022-11-10T01:46:56.558Z,-10.17
2022-11-10T01:49:29.530Z,-10.19
2022-11-10T01:52:16.204Z,-10.18
2022-11-10T01:54:51.360Z,-10.15
2022-11-10T01:57:21.056Z,-10.16
2022-11-10T01:59:52.271Z,-10.18
2022-11-10T02:02:36.622Z,-10.25
2022-11-10T02:05:07.138Z,-10.34
2022-11-10T02:07:37.297Z,-10.35
2022-11-10T02:10:15.108Z,-10.48
2022-11-10T02:12:44.611Z,-10.59
2022-11-10T02:15:18.498Z,-10.66
2022-11-10T02:17:51.478Z,-10.69
2022-11-10T02:20:23.182Z,-10.80
2022-11-10T02:22:54.016Z,-10.89
2022-11-10T02:25:30.217Z,-10.94
2022-11-10T02:27:59.484Z,-10.99
2022-11-10T02:30:29.057Z,-11.00
2022-11-10T02:32:58.499Z,-11.04
2022-11-10T02:35:27.767Z,-11.09
2022-11-10T02:37:56.923Z,-11.17
2022-11-10T02:40:26.082Z,-11.20
2022-11-10T02:42:55.264Z,-11.25
2022-11-10T02:45:24.837Z,-11.27
2022-11-10T02:47:54.331Z,-11.35
2022-11-10T02:50:24.049Z,-11.48
2022-11-10T02:52:53.316Z,-11.56
2022-11-10T02:55:22.670Z,-11.70
2022-11-10T02:57:54.753Z,-11.87
2022-11-10T03:00:24.785Z,-11.94
2022-11-10T03:03:05.004Z,-12.00
2022-11-10T03:05:35.270Z,-12.12
2022-11-10T03:08:06.115Z,-12.19
2022-11-10T03:10:36.086Z,-12.23
2022-11-10T03:13:05.607Z,-12.25
2022-11-10T03:15:35.058Z,-12.27
2022-11-10T03:18:08.306Z,-12.27
2022-11-10T03:20:37.720Z,-12.31
2022-11-10T03:23:07.843Z,-12.40
2022-11-10T03:25:38.644Z,-12.52
2022-11-10T03:28:08.322Z,-12.57
2022-11-10T03:30:38.322Z,-12.61
2022-11-10T03:33:08.259Z,-12.66
2022-11-10T03:35:37.835Z,-12.68
2022-11-10T03:38:07.235Z,-12.75
2022-11-10T03:40:56.982Z,-12.77
2022-11-10T03:43:27.345Z,-12.89
2022-11-10T03:45:57.719Z,-12.97
2022-11-10T03:48:27.271Z,-13.04
2022-11-10T03:50:56.381Z,-13.03
2022-11-10T03:53:25.799Z,-13.06
2022-11-10T03:55:54.993Z,-13.11
2022-11-10T03:58:24.467Z,-13.24
2022-11-10T04:00:56.529Z,-13.31
2022-11-10T04:03:26.148Z,-13.40
2022-11-10T04:06:14.119Z,-13.50
2022-11-10T04:09:01.551Z,-13.60
2022-11-10T04:11:51.478Z,-13.67
2022-11-10T04:14:39.300Z,-13.80
2022-11-10T04:17:08.822Z,-13.90
2022-11-10T04:19:37.788Z,-14.04
2022-11-10T04:22:07.007Z,-14.18
2022-11-10T04:24:36.662Z,-14.24
2022-11-10T04:27:05.933Z,-14.28
2022-11-10T04:29:35.458Z,-14.28
2022-11-10T04:32:04.832Z,-14.24
2022-11-10T04:34:33.935Z,-14.20
2022-11-10T04:37:03.075Z,-14.26
2022-11-10T04:39:32.337Z,-14.27
2022-11-10T04:42:03.073Z,-14.27
2022-11-10T04:44:32.581Z,-14.30
2022-11-10T04:47:01.779Z,-14.33
2022-11-10T04:49:31.010Z,-14.26
2022-11-10T04:52:00.366Z,-14.30
2022-11-10T04:54:29.754Z,-14.16
2022-11-10T04:56:58.935Z,-13.93
2022-11-10T04:59:28.547Z,-13.77
2022-11-10T05:01:58.059Z,-13.59
2022-11-10T05:04:28.019Z,-13.47
2022-11-10T05:06:57.084Z,-13.52
2022-11-10T05:09:26.978Z,-13.68
2022-11-10T05:11:56.349Z,-13.85
2022-11-10T05:14:25.670Z,-13.98
2022-11-10T05:16:54.897Z,-14.10
2022-11-10T05:19:24.263Z,-14.09
2022-11-10T05:21:54.062Z,-13.93
2022-11-10T05:24:23.524Z,-13.77
2022-11-10T05:26:53.047Z,-13.58
2022-11-10T05:29:22.539Z,-13.52
2022-11-10T05:31:52.159Z,-13.56
2022-11-10T05:34:21.539Z,-13.63
2022-11-10T05:36:51.231Z,-13.65
2022-11-10T05:39:20.721Z,-13.62
2022-11-10T05:41:50.646Z,-13.54
2022-11-10T05:44:19.874Z,-13.43
2022-11-10T05:46:49.437Z,-13.45
2022-11-10T05:49:18.938Z,-13.41
2022-11-10T05:51:48.047Z,-13.43
2022-11-10T05:54:17.479Z,-13.43
2022-11-10T05:56:47.083Z,-13.41
2022-11-10T05:59:16.261Z,-13.41
2022-11-10T06:01:45.608Z,-13.47
2022-11-10T06:04:14.983Z,-13.62
2022-11-10T06:06:44.479Z,-13.76
2022-11-10T06:09:13.902Z,-13.73
2022-11-10T06:11:43.348Z,-13.66
2022-11-10T06:14:12.351Z,-13.63
2022-11-10T06:16:41.669Z,-13.57
2022-11-10T06:19:11.124Z,-13.48
2022-11-10T06:21:40.331Z,-13.41
2022-11-10T06:24:11.648Z,-13.39
2022-11-10T06:26:40.942Z,-13.40
2022-11-10T06:29:10.208Z,-13.45
2022-11-10T06:31:39.917Z,-13.43
2022-11-10T06:34:09.596Z,-13.39
2022-11-10T06:36:40.284Z,-13.38
2022-11-10T06:39:09.227Z,-13.40
2022-11-10T06:41:38.854Z,-13.43
2022-11-10T06:44:08.336Z,-13.43
2022-11-10T06:46:42.157Z,-13.45
2022-11-10T06:49:11.769Z,-13.48
2022-11-10T06:51:41.233Z,-13.47
2022-11-10T06:54:10.685Z,-13.48
2022-11-10T06:56:40.327Z,-13.43
2022-11-10T06:59:09.796Z,-13.48
2022-11-10T07:01:39.440Z,-13.50
2022-11-10T07:04:24.068Z,-13.55
2022-11-10T07:06:53.553Z,-13.63
2022-11-10T07:09:23.071Z,-13.73
2022-11-10T07:11:52.267Z,-13.71
2022-11-10T07:14:21.561Z,-13.65
2022-11-10T07:16:50.877Z,-13.68
2022-11-10T07:19:20.120Z,-13.66
2022-11-10T07:21:49.431Z,-13.76
2022-11-10T07:24:18.490Z,-13.82
2022-11-10T07:26:47.641Z,-13.88
2022-11-10T07:29:17.219Z,-13.80
2022-11-10T07:31:47.139Z,-13.75
2022-11-10T07:34:16.571Z,-13.69
2022-11-10T07:36:46.063Z,-13.62
2022-11-10T07:39:16.092Z,-13.56
2022-11-10T07:41:47.677Z,-13.48
2022-11-10T07:44:20.885Z,-13.43
2022-11-10T07:46:50.231Z,-13.41
2022-11-10T07:49:19.752Z,-13.42
2022-11-10T07:51:49.120Z,-13.37
2022-11-10T07:54:18.873Z,-13.31
2022-11-10T07:56:48.221Z,-13.30
2022-11-10T07:59:17.638Z,-13.35
2022-11-10T08:01:48.147Z,-13.43
2022-11-10T08:04:17.394Z,-13.52
2022-11-10T08:06:46.770Z,-13.52
2022-11-10T08:09:16.369Z,-13.56
2022-11-10T08:11:45.442Z,-13.64
2022-11-10T08:14:14.671Z,-13.71
2022-11-10T08:16:44.086Z,-13.76
2022-11-10T08:19:13.464Z,-13.78
2022-11-10T08:21:42.773Z,-13.86
2022-11-10T08:24:13.216Z,-13.91
2022-11-10T08:26:42.399Z,-13.94
2022-11-10T08:29:11.672Z,-13.98
2022-11-10T08:31:41.186Z,-14.07
2022-11-10T08:34:10.533Z,-14.10
2022-11-10T08:36:40.006Z,-14.13
2022-11-10T08:39:09.672Z,-14.18
2022-11-10T08:41:39.060Z,-14.17
2022-11-10T08:44:11.003Z,-14.20
2022-11-10T08:46:41.504Z,-14.26
2022-11-10T08:49:11.387Z,-14.29
2022-11-10T08:51:40.659Z,-14.36
2022-11-10T08:54:09.911Z,-14.43
2022-11-10T08:56:39.300Z,-14.49
2022-11-10T08:59:08.995Z,-14.48
2022-11-10T09:01:38.446Z,-14.47
2022-11-10T09:04:07.849Z,-14.44
2022-11-10T09:06:37.579Z,-14.48
2022-11-10T09:09:08.499Z,-14.49
2022-11-10T09:11:37.734Z,-14.47
2022-11-10T09:14:06.849Z,-14.43
2022-11-10T09:16:36.234Z,-14.42
2022-11-10T09:19:05.436Z,-14.45
2022-11-10T09:21:34.654Z,-14.47
2022-11-10T09:24:04.121Z,-14.40
2022-11-10T09:26:35.095Z,-14.39
2022-11-10T09:29:04.792Z,-14.38
2022-11-10T09:31:34.174Z,-14.33
2022-11-10T09:34:03.409Z,-14.34
2022-11-10T09:36:32.954Z,-14.28
2022-11-10T09:39:02.335Z,-14.28
2022-11-10T09:41:32.296Z,-14.24
2022-11-10T09:44:12.808Z,-14.28
2022-11-10T09:46:49.413Z,-14.30
2022-11-10T09:50:02.510Z,-14.37
2022-11-10T09:52:35.662Z,-14.36
2022-11-10T09:55:27.387Z,-14.29
2022-11-10T09:58:00.106Z,-14.26
2022-11-10T10:00:34.960Z,-14.18
2022-11-10T10:03:07.600Z,-14.19
2022-11-10T10:06:06.847Z,-14.22
2022-11-10T10:08:43.662Z,-14.33
2022-11-10T10:11:45.466Z,-14.46
2022-11-10T10:14:53.867Z,-14.47
2022-11-10T10:17:47.438Z,-14.41
2022-11-10T10:20:41.434Z,-14.44
2022-11-10T10:24:10.413Z,-14.52
2022-11-10T10:26:55.223Z,-14.53
2022-11-10T10:29:52.924Z,-14.50
2022-11-10T10:32:25.349Z,-14.45
2022-11-10T10:34:54.625Z,-14.41
2022-11-10T10:37:28.363Z,-14.42
2022-11-10T10:39:58.190Z,-14.42
2022-11-10T10:42:35.568Z,-14.46
2022-11-10T10:45:22.490Z,-14.48
2022-11-10T10:47:55.342Z,-14.52
2022-11-10T10:50:36.266Z,-14.49
2022-11-10T10:53:25.986Z,-14.51
2022-11-10T10:56:06.920Z,-14.49
2022-11-10T10:59:00.298Z,-14.48
2022-11-10T11:01:40.153Z,-14.60
2022-11-10T11:04:37.463Z,-14.57
2022-11-10T11:07:22.752Z,-14.61
2022-11-10T11:09:51.936Z,-14.65
2022-11-10T11:12:23.892Z,-14.65
2022-11-10T11:20:17.822Z,-14.76
2022-11-10T11:23:06.510Z,-14.79
2022-11-10T11:25:46.213Z,-14.89
2022-11-10T11:28:39.600Z,-14.97
2022-11-10T11:32:01.985Z,-14.96
2022-11-10T11:34:44.680Z,-14.98
2022-11-10T11:37:39.969Z,-14.94
2022-11-10T11:40:36.471Z,-14.86
2022-11-10T11:43:29.930Z,-14.81
2022-11-10T11:46:11.011Z,-14.80
2022-11-10T11:48:53.799Z,-14.81
2022-11-10T11:52:02.107Z,-14.74
2022-11-10T11:55:05.728Z,-14.74
2022-11-10T11:57:58.731Z,-14.71
2022-11-10T12:00:30.165Z,-14.67
2022-11-10T12:03:57.321Z,-14.57
2022-11-10T12:06:59.607Z,-14.54
2022-11-10T12:09:43.340Z,-14.51
2022-11-10T12:12:28.214Z,-14.48
2022-11-10T12:15:33.000Z,-14.51
2022-11-10T12:18:26.985Z,-14.53
2022-11-10T12:21:41.102Z,-14.51
2022-11-10T12:24:56.320Z,-14.57
2022-11-10T12:27:44.035Z,-14.55
2022-11-10T12:30:17.731Z,-14.55
2022-11-10T12:33:06.381Z,-14.61
2022-11-10T12:35:42.933Z,-14.62
2022-11-10T12:38:18.019Z,-14.68
2022-11-10T12:41:14.020Z,-14.81
2022-11-10T12:44:14.808Z,-14.84
2022-11-10T12:46:51.895Z,-14.86
2022-11-10T12:49:34.448Z,-14.95
2022-11-10T12:52:42.227Z,-14.97
2022-11-10T12:55:16.076Z,-15.00
2022-11-10T12:57:46.855Z,-14.99
2022-11-10T13:00:33.527Z,-15.00
2022-11-10T13:03:03.070Z,-15.05
2022-11-10T13:05:43.177Z,-15.15
2022-11-10T13:08:45.328Z,-15.18
2022-11-10T13:11:14.602Z,-15.16
2022-11-10T13:14:01.246Z,-15.12
2022-11-10T13:16:48.859Z,-15.17
2022-11-10T13:19:27.052Z,-15.15
2022-11-10T13:22:11.558Z,-15.03
2022-11-10T13:24:45.302Z,-14.93
2022-11-10T13:27:47.575Z,-14.96
2022-11-10T13:30:46.066Z,-14.99
2022-11-10T13:33:31.751Z,-15.02
2022-11-10T13:36:01.239Z,-15.06
2022-11-10T13:38:44.074Z,-15.02
2022-11-10T13:41:19.415Z,-15.08
2022-11-10T13:43:57.476Z,-15.08
2022-11-10T13:46:47.580Z,-14.99
2022-11-10T13:49:54.709Z,-14.93
2022-11-10T13:53:10.014Z,-14.98
2022-11-10T13:56:04.483Z,-14.99
2022-11-10T13:58:36.797Z,-14.99
2022-11-10T14:01:28.038Z,-14.96
2022-11-10T14:04:04.959Z,-14.97
2022-11-10T14:06:50.801Z,-15.02
2022-11-10T14:09:41.111Z,-15.10
2022-11-10T14:12:57.210Z,-15.18
2022-11-10T14:15:55.495Z,-15.21
2022-11-10T14:18:30.116Z,-15.16
2022-11-10T14:21:02.605Z,-15.17
2022-11-10T14:24:05.557Z,-15.21
2022-11-10T14:26:43.475Z,-15.29
2022-11-10T14:29:39.635Z,-15.31
2022-11-10T14:32:22.491Z,-15.34
2022-11-10T14:34:56.690Z,-15.46
2022-11-10T14:37:31.144Z,-15.45
2022-11-10T14:40:03.970Z,-15.43
2022-11-10T14:42:35.690Z,-15.39
2022-11-10T14:45:22.630Z,-15.39
2022-11-10T14:47:58.035Z,-15.36
2022-11-10T14:50:37.334Z,-15.34
2022-11-10T14:53:30.863Z,-15.28
2022-11-10T14:56:04.766Z,-15.23
2022-11-10T14:58:44.189Z,-15.13
2022-11-10T15:01:34.708Z,-15.13
2022-11-10T15:04:15.592Z,-15.25
2022-11-10T15:06:47.308Z,-15.32
2022-11-10T15:10:02.325Z,-15.45
2022-11-10T15:12:31.664Z,-15.34
2022-11-10T15:15:02.636Z,-15.34
2022-11-10T15:17:53.417Z,-15.41
2022-11-10T15:20:36.924Z,-15.58
2022-11-10T15:23:37.612Z,-15.66
2022-11-10T15:26:22.173Z,-15.64
2022-11-10T15:28:52.752Z,-15.58
2022-11-10T15:31:32.953Z,-15.58
2022-11-10T15:34:06.300Z,-15.56
2022-11-10T15:36:42.865Z,-15.56
2022-11-10T15:39:16.833Z,-15.58
2022-11-10T15:41:49.647Z,-15.60
2022-11-10T15:44:31.921Z,-15.56
2022-11-10T15:47:01.597Z,-15.49
2022-11-10T15:49:38.571Z,-15.48
2022-11-10T15:52:26.957Z,-15.44
2022-11-10T15:54:58.911Z,-15.45
2022-11-10T15:57:28.195Z,-15.42
2022-11-10T15:59:58.247Z,-15.43
2022-11-10T16:02:28.412Z,-15.42
2022-11-10T16:05:00.034Z,-15.41
2022-11-10T16:07:29.705Z,-15.43
2022-11-10T16:09:59.024Z,-15.40
2022-11-10T16:12:30.324Z,-15.35
2022-11-10T16:15:00.754Z,-15.30
2022-11-10T16:17:29.995Z,-15.28
2022-11-10T16:19:59.756Z,-15.24
2022-11-10T16:22:29.039Z,-15.17
2022-11-10T16:24:58.424Z,-15.08
2022-11-10T16:27:28.091Z,-14.98
2022-11-10T16:29:57.316Z,-14.89
2022-11-10T16:32:26.664Z,-14.84
2022-11-10T16:34:56.220Z,-14.74
2022-11-10T16:37:25.637Z,-14.64
2022-11-10T16:39:55.429Z,-14.57
2022-11-10T16:42:25.678Z,-14.57
2022-11-10T16:44:54.850Z,-14.59
2022-11-10T16:47:24.258Z,-14.52
2022-11-10T16:49:53.544Z,-14.45
2022-11-10T16:52:23.922Z,-14.36
2022-11-10T16:54:53.452Z,-14.26
2022-11-10T16:57:22.549Z,-14.19
2022-11-10T16:59:51.652Z,-14.08
2022-11-10T17:03:28.731Z,-14.01
2022-11-10T17:05:58.410Z,-13.90
2022-11-10T17:08:31.947Z,-13.87
2022-11-10T17:11:02.704Z,-13.81
2022-11-10T17:13:32.437Z,-13.67
2022-11-10T17:16:13.934Z,-13.56
2022-11-10T17:18:44.991Z,-13.51
2022-11-10T17:21:15.950Z,-13.46
2022-11-10T17:23:45.416Z,-13.39
2022-11-10T17:26:17.451Z,-13.32
2022-11-10T17:28:47.119Z,-13.20
2022-11-10T17:31:17.201Z,-13.09
2022-11-10T17:33:46.845Z,-13.01
2022-11-10T17:36:25.236Z,-12.87
2022-11-10T17:38:55.253Z,-12.75
2022-11-10T17:41:24.678Z,-12.70
2022-11-10T17:43:54.484Z,-12.65
2022-11-10T17:46:24.313Z,-12.60
2022-11-10T17:49:01.611Z,-12.47
2022-11-10T17:51:35.821Z,-12.34
2022-11-10T17:54:07.044Z,-12.23
2022-11-10T17:56:36.487Z,-12.11
2022-11-10T17:59:06.185Z,-12.02
2022-11-10T18:01:35.924Z,-11.90
2022-11-10T18:04:06.383Z,-11.77
2022-11-10T18:06:36.203Z,-11.64
2022-11-10T18:09:05.706Z,-11.51
2022-11-10T18:11:35.229Z,-11.46
2022-11-10T18:14:04.767Z,-11.39
2022-11-10T18:16:34.805Z,-11.31
2022-11-10T18:19:04.357Z,-11.19
2022-11-10T18:21:33.781Z,-11.12
2022-11-10T18:24:03.293Z,-11.06
2022-11-10T18:26:33.033Z,-11.00
2022-11-10T18:29:02.292Z,-10.89
2022-11-10T18:31:31.723Z,-10.77
2022-11-10T18:34:01.277Z,-10.64
2022-11-10T18:36:30.720Z,-10.47
2022-11-10T18:39:00.204Z,-10.40
2022-11-10T18:41:48.011Z,-10.22
2022-11-10T18:44:21.604Z,-10.06
2022-11-10T18:46:51.160Z,-9.98
2022-11-10T18:49:21.799Z,-9.91
2022-11-10T18:51:51.299Z,-9.77
2022-11-10T18:54:20.821Z,-9.61
2022-11-10T18:56:50.411Z,-9.43
2022-11-10T18:59:20.122Z,-9.30
2022-11-10T19:01:50.930Z,-9.16
2022-11-10T19:04:20.708Z,-9.00
2022-11-10T19:06:50.609Z,-8.87
2022-11-10T19:09:20.355Z,-8.75
2022-11-10T19:11:49.852Z,-8.64
2022-11-10T19:14:19.243Z,-8.52
2022-11-10T19:16:49.159Z,-8.42
2022-11-10T19:19:19.581Z,-8.34
2022-11-10T19:21:50.843Z,-8.28
2022-11-10T19:24:27.700Z,-8.19
2022-11-10T19:26:57.800Z,-8.04
2022-11-10T19:29:27.262Z,-7.87
2022-11-10T19:31:56.925Z,-7.73
2022-11-10T19:34:26.397Z,-7.60
2022-11-10T19:36:55.915Z,-7.50
2022-11-10T19:39:25.361Z,-7.41
2022-11-10T19:41:55.240Z,-7.34
2022-11-10T19:44:24.664Z,-7.28
2022-11-10T19:46:53.969Z,-7.23
2022-11-10T19:49:23.546Z,-7.16
2022-11-10T19:51:53.212Z,-7.07
2022-11-10T19:54:22.814Z,-6.98
2022-11-10T19:56:52.609Z,-6.89
2022-11-10T19:59:22.558Z,-6.76
2022-11-10T20:01:52.612Z,-6.64
2022-11-10T20:04:23.175Z,-6.57
2022-11-10T20:07:12.767Z,-6.44
2022-11-10T20:09:42.472Z,-6.32
2022-11-10T20:12:12.067Z,-6.22
2022-11-10T20:14:41.506Z,-6.14
2022-11-10T20:17:10.985Z,-6.03
2022-11-10T20:19:41.305Z,-5.99
2022-11-10T20:22:13.800Z,-5.92
2022-11-10T20:24:50.055Z,-5.88
2022-11-10T20:27:20.617Z,-5.81
2022-11-10T20:29:50.083Z,-5.72
2022-11-10T20:32:19.484Z,-5.66
2022-11-10T20:34:48.919Z,-5.58
2022-11-10T20:37:18.413Z,-5.51
2022-11-10T20:39:48.262Z,-5.41
2022-11-10T20:42:18.491Z,-5.25
2022-11-10T20:44:48.302Z,-5.14
2022-11-10T20:47:17.900Z,-5.04
2022-11-10T20:49:47.333Z,-4.96
2022-11-10T20:52:16.913Z,-4.91
2022-11-10T20:54:46.400Z,-4.83
2022-11-10T20:57:15.964Z,-4.79
2022-11-10T20:59:45.147Z,-4.73
2022-11-10T21:02:15.103Z,-4.71
2022-11-10T21:04:44.495Z,-4.66
2022-11-10T21:07:13.971Z,-4.65
2022-11-10T21:09:43.207Z,-4.64
2022-11-10T21:12:33.777Z,-4.63
2022-11-10T21:15:02.860Z,-4.62
2022-11-10T21:17:32.167Z,-4.58
2022-11-10T21:20:01.509Z,-4.56
2022-11-10T21:22:30.772Z,-4.57
2022-11-10T21:25:00.234Z,-4.55
2022-11-10T21:27:29.424Z,-4.55
2022-11-10T21:29:59.859Z,-4.52
2022-11-10T21:32:29.604Z,-4.51
2022-11-10T21:34:58.831Z,-4.47
2022-11-10T21:37:28.064Z,-4.47
2022-11-10T21:39:57.543Z,-4.46
2022-11-10T21:42:28.531Z,-4.47
2022-11-10T21:44:59.985Z,-4.47
2022-11-10T21:47:29.724Z,-4.47
2022-11-10T21:49:58.915Z,-4.45
2022-11-10T21:52:31.152Z,-4.44
2022-11-10T21:55:01.368Z,-4.40
2022-11-10T21:57:30.840Z,-4.38
2022-11-10T22:00:00.235Z,-4.33
2022-11-10T22:02:29.641Z,-4.27
2022-11-10T22:04:58.819Z,-4.22
2022-11-10T22:07:28.160Z,-4.18
2022-11-10T22:10:33.528Z,-4.15
2022-11-10T22:13:21.016Z,-4.14
2022-11-10T22:16:09.676Z,-4.10
2022-11-10T22:18:39.031Z,-4.09
2022-11-10T22:21:10.504Z,-4.05
2022-11-10T22:23:58.405Z,-3.97
2022-11-10T22:26:28.040Z,-3.95
2022-11-10T22:28:58.098Z,-3.92
2022-11-10T22:31:29.651Z,-3.91
2022-11-10T22:33:59.438Z,-3.91
2022-11-10T22:36:28.806Z,-3.92
2022-11-10T22:39:03.167Z,-3.87
2022-11-10T22:41:51.240Z,-3.88
2022-11-10T22:44:24.845Z,-3.97
2022-11-10T22:46:54.887Z,-4.01
2022-11-10T22:49:26.304Z,-4.06
2022-11-10T22:51:56.559Z,-4.11
2022-11-10T22:54:26.466Z,-4.16
2022-11-10T22:56:55.730Z,-4.23
2022-11-10T22:59:25.020Z,-4.29
2022-11-10T23:01:54.362Z,-4.32
2022-11-10T23:04:23.811Z,-4.35
2022-11-10T23:06:53.397Z,-4.40
2022-11-10T23:09:22.849Z,-4.46
2022-11-10T23:11:52.131Z,-4.51
2022-11-10T23:14:21.497Z,-4.55
2022-11-10T23:16:50.900Z,-4.59
2022-11-10T23:19:20.275Z,-4.62
2022-11-10T23:21:49.933Z,-4.67
2022-11-10T23:24:23.222Z,-4.70
2022-11-10T23:26:52.630Z,-4.72
2022-11-10T23:29:21.838Z,-4.76
2022-11-10T23:31:51.242Z,-4.78
2022-11-10T23:34:20.618Z,-4.77
2022-11-10T23:36:50.231Z,-4.76
2022-11-10T23:39:20.313Z,-4.76
2022-11-10T23:41:49.852Z,-4.77
2022-11-10T23:44:19.122Z,-4.76
2022-11-10T23:46:48.502Z,-4.75
2022-11-10T23:49:18.023Z,-4.75
2022-11-10T23:51:47.443Z,-4.74
2022-11-10T23:54:16.808Z,-4.71
2022-11-10T23:56:45.767Z,-4.69
2022-11-10T23:59:14.933Z,-4.73
